Terminal Aerodrome Forecast
Issued by NWS

Home | Current Version | Previous Version | Text Only | Print | Product List | Glossary On
Versions: 1 2 3 4 5 6 7 8 9 10 11 12 13
000
FTUS46 KSEW 231758
TAFHQM
TAF
KHQM 231758Z 2318/2418 06011KT 1 1/2SM RA BR OVC015 WS020/19045KT
     FM240400 15012KT 3SM -RA BR OVC010
     FM241000 18010KT 5SM -SHRA BR SCT012 OVC020
     FM241600 10006KT P6SM SCT018 OVC150=

USA.gov is the U.S. government's official web portal to all federal, state and local government web resources and services.